Main page
METAR-TAF:

METAR-TAF

Airports :

Locarno Airport

Locarno, Switzerland

latitude: 46-09-55N, longitude: 8-52-40E, elevation: 198 m

Current weather observation

The report was made 5 hours and 2 minutes ago, at 15:50 UTC
Wind 3 kt from the West/Southwest
Temperature 10°C
Humidity 93%
Pressure 1006 hPa
Visibility: 2700 m
Few clouds at a height of 4500 ft
Scattered clouds at a height of 9000 ft
Broken clouds at a height of 18000 ft
mist

METAR: LSZL 251550Z 25003KT 2700 BR FEW045 SCT090 BKN180 10/09 Q1006 RMK YLO

Time: 21:52 (20:52 UTC)

Forecast

The report was made 3 hours and 27 minutes ago, at 17:25 UTC
Forecast valid from 25 at 18 UTC to 26 at 03 UTC
Wind 2 kt from variable directions
Visibility: 2700 m
Few clouds at a height of 4500 ft
mist
Becoming
from 25 at 18 UTC to 25 at 21 UTC
Visibility: 5000 m

TAF: LSZL 251725Z 2518/2603 VRB02KT 2700 BR FEW045 BECMG 2518/2521 5000 NSW

Weather observations and forecasts of more than 4000 airports (METAR and TAF reports).

The available stations are represented by yellow and red dots on the map.

Hover mouse over dot to see the name of the station.

Then click to see weather observations and forecasts.

To change the map : click on the green buttons with a black cross to zoom in, on the green button with a dash to zoom out, or on the green arrows for adjacent maps.


METAR-TAF: